Time;durP1;ratioP1;P1;durP2;ratioP2;P2;SDS_P1;SDS_P2;PMS_P1;PMS_P2;Temp;Humidity;BMP_temperature;BMP_pressure;BME280_temperature;BME280_humidity;BME280_pressure;Samples;Min_cycle;Max_cycle;Signal;HPM_P1;HPM_P2
2023/02/20 00:00:43;;;;;;;12.07;5.25;;;6.60;1.00;;;;;;6277002;22;20067;-84
2023/02/20 00:03:31;;;;;;;11.18;5.55;;;6.60;1.00;;;;;;6276670;22;20126;-82
2023/02/20 00:06:24;;;;;;;16.67;5.45;;;6.50;1.00;;;;;;6281749;22;20441;-83
2023/02/20 00:09:12;;;;;;;11.52;5.03;;;6.50;61.60;;;;;;6258978;22;20024;-84
2023/02/20 00:11:59;;;;;;;12.63;5.30;;;6.50;99.90;;;;;;6276462;22;20046;-83
2023/02/20 00:14:48;;;;;;;8.30;5.70;;;6.50;99.90;;;;;;6254540;22;20031;-84
2023/02/20 00:17:36;;;;;;;12.20;5.13;;;6.50;99.90;;;;;;6274167;22;20027;-84
2023/02/20 00:20:24;;;;;;;12.30;4.88;;;6.50;99.90;;;;;;6278321;22;20027;-84
2023/02/20 00:23:12;;;;;;;8.40;4.75;;;6.40;99.90;;;;;;6277002;22;20036;-84
2023/02/20 00:26:07;;;;;;;11.43;5.32;;;6.40;99.90;;;;;;6254721;22;20379;-86
2023/02/20 00:28:56;;;;;;;10.50;5.20;;;6.50;99.90;;;;;;6256252;22;20031;-83
2023/02/20 00:31:56;;;;;;;12.85;4.97;;;6.50;99.90;;;;;;6254837;22;20031;-83
2023/02/20 00:34:43;;;;;;;13.00;5.20;;;6.50;99.90;;;;;;6252584;22;20157;-83
2023/02/20 00:37:30;;;;;;;11.40;5.00;;;6.50;99.90;;;;;;6274220;22;20031;-85
2023/02/20 00:40:19;;;;;;;8.10;4.60;;;6.50;99.90;;;;;;6277786;22;20028;-83
2023/02/20 00:43:06;;;;;;;13.38;5.80;;;6.50;99.90;;;;;;6254572;22;20031;-83
2023/02/20 00:45:54;;;;;;;12.50;5.40;;;6.50;99.90;;;;;;6275983;22;20098;-83
2023/02/20 00:48:42;;;;;;;9.00;4.60;;;6.50;99.90;;;;;;6254461;22;20391;-83
2023/02/20 00:51:30;;;;;;;11.85;5.07;;;6.50;99.90;;;;;;6276322;22;20031;-83
2023/02/20 00:54:20;;;;;;;12.75;4.45;;;6.60;82.10;;;;;;6276106;22;20049;-83
2023/02/20 00:57:07;;;;;;;15.52;5.45;;;6.60;1.00;;;;;;6261038;22;20039;-83
2023/02/20 00:59:55;;;;;;;11.25;4.93;;;6.60;1.00;;;;;;6276015;22;20051;-85
2023/02/20 01:02:42;;;;;;;9.55;5.28;;;6.60;1.00;;;;;;6277004;22;20031;-83
2023/02/20 01:05:29;;;;;;;12.75;5.10;;;6.60;99.90;;;;;;6279766;22;20120;-83
2023/02/20 01:08:17;;;;;;;9.30;4.40;;;6.60;99.90;;;;;;6278812;22;20026;-81
2023/02/20 01:11:04;;;;;;;12.82;4.57;;;6.60;99.90;;;;;;6281763;22;20028;-84
2023/02/20 01:13:54;;;;;;;12.23;4.57;;;6.60;99.90;;;;;;6290319;22;20012;-82
2023/02/20 01:16:51;;;;;;;11.63;5.43;;;6.60;99.90;;;;;;6268654;22;20376;-83
2023/02/20 01:19:44;;;;;;;11.02;4.88;;;6.60;99.90;;;;;;6253439;22;20027;-82
2023/02/20 01:22:33;;;;;;;12.00;4.53;;;6.50;99.90;;;;;;6275719;22;20031;-83
2023/02/20 01:25:21;;;;;;;13.48;4.75;;;6.50;99.90;;;;;;6256150;22;20042;-82
2023/02/20 01:28:08;;;;;;;11.63;6.10;;;6.50;99.90;;;;;;6277879;22;20102;-83
2023/02/20 01:31:00;;;;;;;10.55;4.75;;;6.50;99.90;;;;;;6277849;22;20024;-81
2023/02/20 01:33:47;;;;;;;10.50;4.38;;;6.50;99.90;;;;;;6254300;22;20023;-81
2023/02/20 01:36:34;;;;;;;16.85;5.45;;;6.50;99.90;;;;;;6255393;22;20108;-84
2023/02/20 01:39:25;;;;;;;12.93;5.22;;;6.40;1.00;;;;;;6277710;22;20034;-82
2023/02/20 01:42:19;;;;;;;8.77;4.85;;;6.50;1.00;;;;;;6255462;22;20024;-83
2023/02/20 01:45:24;;;;;;;11.43;4.93;;;6.50;99.90;;;;;;6277138;22;20276;-81
2023/02/20 01:48:24;;;;;;;19.92;5.32;;;6.50;99.90;;;;;;6277628;22;20051;-81
2023/02/20 01:51:11;;;;;;;15.63;5.43;;;6.40;1.00;;;;;;6253072;22;20094;-82
2023/02/20 01:53:59;;;;;;;16.70;4.40;;;6.40;1.00;;;;;;6277199;22;20138;-82
2023/02/20 01:56:47;;;;;;;13.40;4.85;;;6.40;1.00;;;;;;6275290;22;20154;-81
2023/02/20 01:59:38;;;;;;;14.80;5.13;;;6.40;1.00;;;;;;6274130;22;20415;-82
2023/02/20 02:02:29;;;;;;;12.85;5.05;;;6.40;1.00;;;;;;6275722;22;20026;-82
2023/02/20 02:05:17;;;;;;;11.05;4.90;;;6.30;1.00;;;;;;6254412;22;20047;-83
2023/02/20 02:08:07;;;;;;;15.15;4.50;;;6.30;1.00;;;;;;6255658;22;20034;-82
2023/02/20 02:10:54;;;;;;;16.75;5.63;;;6.30;1.00;;;;;;6276505;22;20048;-82
2023/02/20 02:13:44;;;;;;;10.98;4.93;;;6.30;1.00;;;;;;6280765;22;20023;-83
2023/02/20 02:16:48;;;;;;;11.05;5.40;;;6.30;36.00;;;;;;6256861;22;20095;-83
2023/02/20 02:19:51;;;;;;;13.10;4.93;;;6.30;55.90;;;;;;6280238;22;20019;-82
2023/02/20 02:22:56;;;;;;;16.17;5.43;;;6.20;88.80;;;;;;6275915;22;20042;-83
2023/02/20 02:26:02;;;;;;;14.60;5.03;;;6.20;78.30;;;;;;6276633;22;20035;-83
2023/02/20 02:29:01;;;;;;;14.02;5.05;;;6.10;67.40;;;;;;6276571;22;20370;-83
2023/02/20 02:32:23;;;;;;;12.77;4.40;;;6.10;83.20;;;;;;6275946;22;20020;-81
2023/02/20 02:35:20;;;;;;;13.67;5.00;;;6.10;94.30;;;;;;6107265;23;20025;-83
2023/02/20 02:38:19;;;;;;;14.07;5.68;;;6.10;99.90;;;;;;6202049;22;20027;-79
2023/02/20 02:41:35;;;;;;;13.45;5.40;;;6.10;99.90;;;;;;6277240;22;20419;-82
2023/02/20 02:44:50;;;;;;;13.10;5.43;;;6.10;99.90;;;;;;6275920;22;20035;-83
2023/02/20 02:47:45;;;;;;;10.52;4.65;;;6.10;90.50;;;;;;6227470;22;20020;-82
2023/02/20 02:50:35;;;;;;;12.27;4.65;;;6.20;34.30;;;;;;6275390;22;20446;-83
2023/02/20 02:53:23;;;;;;;12.95;5.13;;;6.20;1.00;;;;;;6275025;22;20019;-82
2023/02/20 02:56:20;;;;;;;9.10;4.35;;;6.20;1.00;;;;;;6275888;22;20027;-82
2023/02/20 02:59:11;;;;;;;13.02;4.65;;;6.10;1.00;;;;;;6252691;22;20023;-83
2023/02/20 03:02:04;;;;;;;11.63;5.13;;;6.10;1.00;;;;;;6275840;22;20463;-83
2023/02/20 03:04:53;;;;;;;10.70;5.03;;;6.10;1.00;;;;;;6275291;22;20080;-81
2023/02/20 03:07:47;;;;;;;10.48;4.65;;;6.10;1.00;;;;;;6273246;22;20418;-82
2023/02/20 03:10:34;;;;;;;17.92;5.18;;;6.00;1.00;;;;;;6275874;22;20444;-82
2023/02/20 03:16:41;;;;;;;14.13;5.65;;;5.90;1.00;;;;;;6275142;22;20122;-81
2023/02/20 03:19:35;;;;;;;11.35;4.97;;;5.90;9.30;;;;;;6254118;22;20133;-81
2023/02/20 03:22:29;;;;;;;10.98;5.07;;;5.90;71.80;;;;;;6273272;22;20028;-81
2023/02/20 03:25:25;;;;;;;11.85;5.47;;;5.90;95.10;;;;;;6258706;22;20051;-81
2023/02/20 03:28:27;;;;;;;12.75;5.00;;;5.90;99.90;;;;;;6276936;22;20031;-81
2023/02/20 03:31:33;;;;;;;12.35;6.10;;;5.90;99.90;;;;;;6275872;22;20118;-82
2023/02/20 03:43:47;;;;;;;16.77;6.10;;;5.80;99.90;;;;;;6275687;22;20035;-81
2023/02/20 03:46:37;;;;;;;11.95;5.82;;;5.80;90.00;;;;;;6272967;22;20484;-81
2023/02/20 03:49:31;;;;;;;13.90;5.57;;;5.80;58.40;;;;;;6275477;22;20032;-83
2023/02/20 03:52:19;;;;;;;19.13;5.57;;;5.70;40.10;;;;;;6276441;22;20027;-85
2023/02/20 03:55:08;;;;;;;13.13;5.50;;;5.70;52.90;;;;;;6279106;22;20381;-82
2023/02/20 03:58:01;;;;;;;14.48;5.95;;;5.70;57.50;;;;;;6281025;22;20027;-82
2023/02/20 04:00:54;;;;;;;17.40;6.13;;;5.60;99.90;;;;;;6256311;22;20027;-82
2023/02/20 04:03:46;;;;;;;13.45;5.90;;;5.50;99.90;;;;;;6256634;22;20034;-81
2023/02/20 04:06:35;;;;;;;20.58;6.10;;;5.40;99.90;;;;;;6254089;22;20023;-82
2023/02/20 04:09:29;;;;;;;17.02;6.38;;;5.30;99.90;;;;;;6257104;22;20028;-81
2023/02/20 04:12:26;;;;;;;13.05;5.32;;;5.30;1.00;;;;;;6276777;22;20024;-82
2023/02/20 04:15:16;;;;;;;16.10;6.45;;;5.20;1.00;;;;;;6283894;22;20023;-81
2023/02/20 04:18:13;;;;;;;11.88;7.10;;;5.20;75.40;;;;;;6280305;22;20317;-81
2023/02/20 04:21:04;;;;;;;14.13;5.80;;;5.10;99.90;;;;;;6276883;22;20031;-81
2023/02/20 04:24:05;;;;;;;13.55;5.85;;;5.10;99.90;;;;;;6256805;22;20023;-85
2023/02/20 04:26:54;;;;;;;14.50;6.75;;;5.00;99.90;;;;;;6257076;22;20030;-81
2023/02/20 04:29:42;;;;;;;17.27;7.25;;;4.90;99.90;;;;;;6255745;22;20082;-82
2023/02/20 04:32:30;;;;;;;18.73;6.90;;;4.90;1.00;;;;;;6256946;22;20054;-82
2023/02/20 04:35:19;;;;;;;20.27;7.25;;;4.90;39.90;;;;;;6256831;22;20027;-83
2023/02/20 04:38:08;;;;;;;15.38;6.82;;;4.90;6.60;;;;;;6275321;22;20036;-83
2023/02/20 04:40:55;;;;;;;16.33;6.72;;;4.90;1.00;;;;;;6276241;22;20032;-84
2023/02/20 04:43:42;;;;;;;24.52;6.82;;;4.90;1.00;;;;;;6254711;22;20128;-81
2023/02/20 04:46:29;;;;;;;20.17;6.88;;;4.90;20.40;;;;;;6276246;22;20028;-81
2023/02/20 04:49:16;;;;;;;12.68;6.43;;;4.80;21.00;;;;;;6275482;22;20032;-82
2023/02/20 04:52:04;;;;;;;16.33;6.90;;;4.80;99.90;;;;;;6255010;22;20426;-82
2023/02/20 04:54:51;;;;;;;16.40;6.57;;;4.80;99.90;;;;;;6278243;22;20063;-81
2023/02/20 04:57:40;;;;;;;16.25;7.07;;;4.70;99.90;;;;;;6256298;22;20031;-84
2023/02/20 05:00:28;;;;;;;13.57;6.88;;;4.70;99.90;;;;;;6276663;22;20127;-81
2023/02/20 05:07:17;;;;;;;20.40;7.63;;;4.70;99.90;;;;;;6281106;22;20087;-84
2023/02/20 05:10:15;;;;;;;14.15;7.28;;;4.70;1.00;;;;;;6276868;22;20051;-83
2023/02/20 05:13:03;;;;;;;23.00;8.30;;;4.70;1.00;;;;;;6276951;22;20073;-83
2023/02/20 05:15:52;;;;;;;15.68;7.82;;;4.60;99.90;;;;;;6275529;22;20035;-82
2023/02/20 05:18:40;;;;;;;20.13;8.07;;;4.50;99.90;;;;;;6274410;22;20127;-82
2023/02/20 05:24:33;;;;;;;20.27;8.57;;;4.50;1.00;;;;;;6274833;22;20496;-82
2023/02/20 05:27:22;;;;;;;17.02;8.80;;;4.50;88.80;;;;;;6277719;22;20296;-82
2023/02/20 05:30:13;;;;;;;23.45;11.15;;;4.50;99.90;;;;;;6255423;22;20106;-82
2023/02/20 05:33:02;;;;;;;16.80;8.85;;;4.50;98.60;;;;;;6276210;22;20024;-81
2023/02/20 05:35:49;;;;;;;14.93;8.50;;;4.50;99.90;;;;;;6275304;22;20419;-81
2023/02/20 05:38:36;;;;;;;17.25;7.55;;;4.40;99.90;;;;;;6277714;22;20032;-80
2023/02/20 05:41:26;;;;;;;20.08;8.02;;;4.40;99.90;;;;;;6276694;22;20023;-82
2023/02/20 05:44:13;;;;;;;17.33;7.55;;;4.40;99.90;;;;;;6277463;22;20350;-81
2023/02/20 05:47:01;;;;;;;16.50;7.80;;;4.40;99.90;;;;;;6277635;22;20085;-81
2023/02/20 05:49:48;;;;;;;21.50;8.30;;;4.40;99.90;;;;;;6273595;22;20217;-81
2023/02/20 05:52:36;;;;;;;17.60;8.25;;;4.40;99.90;;;;;;6279045;22;20043;-81
2023/02/20 05:55:23;;;;;;;21.42;7.82;;;4.40;99.90;;;;;;6259702;22;20031;-81
2023/02/20 05:58:10;;;;;;;16.88;8.23;;;4.40;99.90;;;;;;6255211;22;20035;-82
2023/02/20 06:00:57;;;;;;;19.65;8.05;;;4.40;99.90;;;;;;6277191;22;20055;-84
2023/02/20 06:03:45;;;;;;;20.63;9.55;;;4.40;1.00;;;;;;6255450;22;20032;-82
2023/02/20 06:06:37;;;;;;;17.08;8.05;;;4.50;1.00;;;;;;6276513;22;20042;-81
2023/02/20 06:09:24;;;;;;;16.83;7.47;;;4.50;99.90;;;;;;6254472;22;20034;-81
2023/02/20 06:12:13;;;;;;;28.10;8.05;;;4.50;99.90;;;;;;6253937;22;20031;-78
2023/02/20 06:15:00;;;;;;;13.75;7.35;;;4.40;99.90;;;;;;6254746;22;20030;-78
2023/02/20 06:17:47;;;;;;;19.08;7.10;;;4.40;99.90;;;;;;6277143;22;20034;-80
2023/02/20 06:20:35;;;;;;;15.93;6.80;;;4.40;27.40;;;;;;6252975;22;20027;-81
2023/02/20 06:23:22;;;;;;;18.25;7.75;;;4.30;77.10;;;;;;6252814;22;20031;-81
2023/02/20 06:26:09;;;;;;;14.57;7.18;;;4.30;34.00;;;;;;6276462;22;20028;-80
2023/02/20 06:28:57;;;;;;;20.00;7.20;;;4.40;1.00;;;;;;6274594;22;20034;-80
2023/02/20 06:31:44;;;;;;;17.65;7.32;;;4.40;1.00;;;;;;6274742;22;20031;-80
2023/02/20 06:34:32;;;;;;;15.50;7.03;;;4.40;99.90;;;;;;6255773;22;20024;-80
2023/02/20 06:37:19;;;;;;;14.75;6.40;;;4.50;99.90;;;;;;6252935;22;20077;-80
2023/02/20 06:40:07;;;;;;;13.82;6.90;;;4.40;99.90;;;;;;6267884;22;20036;-81
2023/02/20 06:42:54;;;;;;;21.65;6.75;;;4.40;90.10;;;;;;6282064;22;20028;-80
2023/02/20 06:45:44;;;;;;;18.52;6.60;;;4.40;26.70;;;;;;6278304;22;20104;-80
2023/02/20 06:48:33;;;;;;;13.57;7.30;;;4.40;1.00;;;;;;6275784;22;20027;-79
2023/02/20 06:51:24;;;;;;;20.02;7.60;;;4.40;1.00;;;;;;6254862;22;20023;-80
2023/02/20 06:54:44;;;;;;;19.85;7.60;;;4.40;1.00;;;;;;6254902;22;20031;-79
2023/02/20 06:57:37;;;;;;;13.57;6.35;;;4.50;99.90;;;;;;6211448;22;20087;-78
2023/02/20 07:00:25;;;;;;;13.57;6.90;;;4.50;99.90;;;;;;6275291;22;20028;-80
2023/02/20 07:03:12;;;;;;;13.85;6.03;;;4.50;99.90;;;;;;6254872;22;20042;-81
2023/02/20 07:06:12;;;;;;;20.83;7.28;;;4.60;99.90;;;;;;6253572;22;20304;-80
2023/02/20 07:09:02;;;;;;;14.65;6.07;;;4.60;6.20;;;;;;6252832;22;20030;-79
2023/02/20 07:18:01;;;;;;;;;;;;;;;;;;;;;
2023/02/20 07:56:58;;;;;;;;;;;;;;;;;;;;;
2023/02/20 08:00:50;;;;;;;;;;;;;;;;;;;;;
2023/02/20 08:34:06;;;;;;;10.18;4.43;;;7.20;99.90;;;;;;5851198;24;20038;-82
2023/02/20 09:21:10;;;;;;;5.15;3.03;;;10.00;99.90;;;;;;6038455;23;20024;-82
2023/02/20 09:33:17;;;;;;;;;;;;;;;;;;;;;
2023/02/20 09:36:49;;;;;;;;;;;;;;;;;;;;;
2023/02/20 09:57:54;;;;;;;5.78;2.40;;;13.40;99.90;;;;;;6037884;23;20106;-86
2023/02/20 10:05:03;;;;;;;;;;;;;;;;;;;;;
2023/02/20 10:07:53;;;;;;;6.40;2.43;;;12.80;99.90;;;;;;6014897;23;20027;-85
2023/02/20 10:11:41;;;;;;;6.57;2.50;;;13.20;99.90;;;;;;6038051;23;20122;-83
2023/02/20 10:43:36;;;;;;;7.93;3.20;;;13.90;99.90;;;;;;6007553;23;20418;-82
2023/02/20 10:51:30;;;;;;;;;;;;;;;;;;;;;
2023/02/20 11:08:38;;;;;;;;;;;;;;;;;;;;;
2023/02/20 16:06:24;;;;;;;4.57;0.73;;;18.40;1.00;;;;;;6191873;22;1332701;-86
2023/02/20 16:09:11;;;;;;;5.20;0.90;;;17.90;1.00;;;;;;6223740;23;20031;-84
2023/02/20 16:11:58;;;;;;;1.02;0.70;;;17.30;1.00;;;;;;6244795;23;20042;-83
2023/02/20 16:14:48;;;;;;;2.08;0.80;;;16.80;1.00;;;;;;6222748;23;20017;-83
2023/02/20 16:17:35;;;;;;;6.72;1.00;;;16.30;1.00;;;;;;6223337;23;20024;-85
2023/02/20 16:20:26;;;;;;;2.83;0.95;;;15.20;1.00;;;;;;6221933;23;20118;-84
2023/02/20 16:23:14;;;;;;;4.35;1.58;;;14.40;1.00;;;;;;6244606;23;20450;-85
2023/02/20 16:26:01;;;;;;;2.58;1.63;;;13.80;1.00;;;;;;6245043;23;20047;-85
2023/02/20 16:28:55;;;;;;;7.22;1.58;;;13.50;1.00;;;;;;6245870;23;20024;-84
2023/02/20 16:31:56;;;;;;;6.90;1.52;;;13.20;1.00;;;;;;6225829;23;20031;-85
2023/02/20 16:34:46;;;;;;;2.55;1.20;;;13.00;1.00;;;;;;6225214;23;20327;-86
2023/02/20 16:37:35;;;;;;;5.25;1.17;;;12.80;1.00;;;;;;6227832;23;20032;-84
2023/02/20 16:40:23;;;;;;;2.33;1.30;;;12.70;1.00;;;;;;6228413;23;20056;-87
2023/02/20 16:43:13;;;;;;;6.05;1.50;;;12.60;1.00;;;;;;6246947;23;20070;-85
2023/02/20 16:46:03;;;;;;;4.90;1.40;;;12.50;1.00;;;;;;6247083;23;20054;-86
2023/02/20 16:48:50;;;;;;;1.35;1.13;;;12.40;1.00;;;;;;6248280;23;20035;-85
2023/02/20 16:51:47;;;;;;;3.10;1.30;;;12.30;1.00;;;;;;6225102;23;20024;-85
2023/02/20 16:54:38;;;;;;;2.40;1.35;;;12.20;1.00;;;;;;6227279;23;20035;-84
2023/02/20 16:57:25;;;;;;;2.30;1.40;;;12.10;1.00;;;;;;6225098;23;20036;-85
2023/02/20 17:00:16;;;;;;;6.82;1.77;;;12.00;1.00;;;;;;6247565;23;20035;-88
2023/02/20 17:03:05;;;;;;;2.80;1.58;;;11.90;1.00;;;;;;6223513;23;20024;-84
2023/02/20 17:05:58;;;;;;;3.67;1.73;;;11.80;1.00;;;;;;6221499;23;20028;-85
2023/02/20 17:08:45;;;;;;;3.25;1.52;;;11.70;1.00;;;;;;6246752;23;20028;-84
2023/02/20 17:11:33;;;;;;;2.40;1.27;;;11.50;1.00;;;;;;6226968;23;20426;-85
2023/02/20 17:14:20;;;;;;;3.92;1.48;;;11.40;1.00;;;;;;6246896;23;20031;-86
2023/02/20 17:17:10;;;;;;;5.45;1.55;;;11.30;1.00;;;;;;6247283;23;20035;-85
2023/02/20 17:19:59;;;;;;;4.72;1.63;;;11.10;1.00;;;;;;6246943;23;20024;-86
2023/02/20 17:22:49;;;;;;;2.67;1.63;;;10.90;1.00;;;;;;6225740;23;20061;-86
2023/02/20 17:25:50;;;;;;;2.72;1.35;;;10.60;1.00;;;;;;6247952;23;20162;-86
2023/02/20 17:28:37;;;;;;;2.88;1.70;;;10.50;1.00;;;;;;6225672;23;20024;-85
2023/02/20 17:31:26;;;;;;;3.28;1.40;;;10.20;1.00;;;;;;6225666;23;20024;-85
2023/02/20 17:34:23;;;;;;;6.50;1.73;;;9.90;1.00;;;;;;6247406;23;20023;-87
2023/02/20 17:37:14;;;;;;;2.85;1.38;;;9.60;1.00;;;;;;6224857;23;20024;-85
2023/02/20 17:40:02;;;;;;;8.73;1.90;;;9.50;1.00;;;;;;6228346;23;20050;-86
2023/02/20 17:42:49;;;;;;;5.50;1.75;;;9.40;1.00;;;;;;6247635;23;20028;-87
2023/02/20 17:45:40;;;;;;;9.10;2.45;;;9.30;1.00;;;;;;6222098;23;20035;-86
2023/02/20 17:48:31;;;;;;;11.90;2.42;;;9.30;1.00;;;;;;6247759;23;20035;-86
2023/02/20 17:51:21;;;;;;;4.25;1.73;;;9.30;1.00;;;;;;6227323;23;20020;-86
2023/02/20 17:54:10;;;;;;;4.43;1.95;;;9.20;1.00;;;;;;6247208;23;20363;-86
2023/02/20 17:56:57;;;;;;;4.18;1.63;;;8.90;1.00;;;;;;6247351;23;20170;-86
2023/02/20 17:59:45;;;;;;;5.18;1.65;;;8.60;1.00;;;;;;6248068;23;20032;-86
2023/02/20 18:02:37;;;;;;;16.65;3.63;;;8.40;1.00;;;;;;6250380;22;20043;-85
2023/02/20 18:05:26;;;;;;;17.02;3.95;;;8.40;1.00;;;;;;6224063;23;20032;-85
2023/02/20 18:08:13;;;;;;;4.40;3.17;;;8.40;1.00;;;;;;6247756;23;20034;-85
2023/02/20 18:11:01;;;;;;;7.28;3.67;;;8.70;1.00;;;;;;6247855;23;20020;-85
2023/02/20 18:13:48;;;;;;;8.18;3.28;;;8.80;1.00;;;;;;6247836;23;20118;-86
2023/02/20 18:16:39;;;;;;;9.60;3.80;;;8.80;1.00;;;;;;6246452;23;20036;-86
2023/02/20 18:19:27;;;;;;;7.53;2.92;;;8.70;1.00;;;;;;6248327;23;20028;-85
2023/02/20 18:22:17;;;;;;;4.80;3.05;;;8.60;1.00;;;;;;6245540;23;20114;-86
2023/02/20 18:25:06;;;;;;;11.68;3.38;;;8.40;1.00;;;;;;6245627;23;20046;-85
2023/02/20 18:27:55;;;;;;;6.53;2.83;;;8.20;1.00;;;;;;6225661;23;20560;-86
2023/02/20 18:30:43;;;;;;;8.00;4.03;;;8.00;1.00;;;;;;6249511;23;20031;-86
2023/02/20 18:33:35;;;;;;;10.57;3.80;;;7.80;1.00;;;;;;6245821;23;20111;-86
2023/02/20 18:36:23;;;;;;;6.22;4.00;;;7.70;1.00;;;;;;6249950;23;20332;-86
2023/02/20 18:39:20;;;;;;;6.07;2.80;;;7.50;1.00;;;;;;6229541;23;20101;-85
2023/02/20 18:42:07;;;;;;;7.68;3.50;;;7.40;1.00;;;;;;6243960;23;20402;-88
2023/02/20 18:44:59;;;;;;;11.20;3.22;;;7.50;1.00;;;;;;6226444;23;20436;-86
2023/02/20 18:47:57;;;;;;;6.72;3.55;;;7.50;1.00;;;;;;6225078;23;20034;-84
2023/02/20 18:50:44;;;;;;;10.65;3.58;;;7.50;1.00;;;;;;6247880;23;20035;-86
2023/02/20 18:53:32;;;;;;;4.35;2.92;;;7.50;1.00;;;;;;6234247;23;20043;-87
2023/02/20 18:56:20;;;;;;;6.07;2.92;;;7.50;1.00;;;;;;6261534;23;20079;-85
2023/02/20 18:59:08;;;;;;;5.53;2.83;;;7.40;1.00;;;;;;6237235;23;20043;-84
2023/02/20 19:02:02;;;;;;;5.45;3.00;;;7.40;1.00;;;;;;6241554;23;20052;-86
2023/02/20 19:04:56;;;;;;;5.78;3.60;;;7.40;1.00;;;;;;6241444;23;20087;-87
2023/02/20 19:07:50;;;;;;;12.88;5.18;;;7.20;1.00;;;;;;6233704;23;20059;-85
2023/02/20 19:10:41;;;;;;;12.30;5.30;;;7.00;1.00;;;;;;6249026;23;20020;-85
2023/02/20 19:13:33;;;;;;;9.07;5.50;;;6.80;1.00;;;;;;6231428;23;20102;-86
2023/02/20 19:16:21;;;;;;;10.95;4.32;;;6.50;1.00;;;;;;6226184;23;20102;-86
2023/02/20 19:19:10;;;;;;;7.22;4.38;;;6.30;1.00;;;;;;6225840;23;20323;-87
2023/02/20 19:22:03;;;;;;;7.88;2.63;;;6.20;1.00;;;;;;6248345;23;20408;-86
2023/02/20 19:24:51;;;;;;;6.25;3.38;;;6.00;1.00;;;;;;6226055;23;20024;-86
2023/02/20 19:27:41;;;;;;;5.57;2.95;;;5.80;7.20;;;;;;6247759;23;20027;-87
2023/02/20 19:30:31;;;;;;;9.27;3.30;;;5.70;12.40;;;;;;6247955;23;20040;-83
2023/02/20 19:33:23;;;;;;;11.48;4.20;;;5.80;12.20;;;;;;6226700;23;20434;-86
2023/02/20 19:36:15;;;;;;;18.05;4.30;;;5.70;13.20;;;;;;6227144;23;20024;-86
2023/02/20 19:39:03;;;;;;;8.75;4.68;;;5.80;17.00;;;;;;6223977;23;20058;-86
2023/02/20 19:41:50;;;;;;;8.32;4.80;;;6.00;18.60;;;;;;6225365;23;20040;-85
2023/02/20 19:44:54;;;;;;;21.75;8.02;;;6.20;18.00;;;;;;6225792;23;20020;-88
2023/02/20 19:47:41;;;;;;;16.55;7.95;;;6.40;17.80;;;;;;6228232;23;20024;-88
2023/02/20 19:50:29;;;;;;;13.73;7.07;;;6.50;13.70;;;;;;6227920;23;20166;-86
2023/02/20 19:53:20;;;;;;;14.10;6.40;;;6.60;13.90;;;;;;6246842;23;20024;-87
2023/02/20 19:56:09;;;;;;;10.13;4.88;;;6.40;20.70;;;;;;6227006;23;20027;-86
2023/02/20 19:59:34;;;;;;;11.18;5.13;;;6.40;13.20;;;;;;6230347;23;20023;-87
2023/02/20 20:03:03;;;;;;;11.07;5.30;;;6.30;21.50;;;;;;6190792;23;20020;-86
2023/02/20 20:06:08;;;;;;;12.18;4.80;;;6.10;25.10;;;;;;6227329;23;20123;-87
2023/02/20 20:09:16;;;;;;;10.05;4.57;;;6.10;30.50;;;;;;6227834;23;20028;-84
2023/02/20 20:12:45;;;;;;;8.10;4.65;;;6.30;38.90;;;;;;6237473;23;20035;-86
2023/02/20 20:15:54;;;;;;;8.70;4.90;;;6.60;44.30;;;;;;6238425;23;20020;-86
2023/02/20 20:19:06;;;;;;;9.43;4.78;;;6.70;44.20;;;;;;6256693;23;20051;-88
2023/02/20 20:22:09;;;;;;;10.45;4.45;;;6.80;44.20;;;;;;6239522;23;20028;-86
2023/02/20 20:25:08;;;;;;;10.85;4.95;;;6.90;44.00;;;;;;6241534;23;20028;-86
2023/02/20 20:27:59;;;;;;;8.82;4.82;;;7.00;45.50;;;;;;6260240;23;20020;-85
2023/02/20 20:30:49;;;;;;;8.20;4.50;;;7.00;45.60;;;;;;6260812;23;20036;-86
2023/02/20 20:33:39;;;;;;;8.52;4.07;;;7.00;49.30;;;;;;6238619;23;20054;-86
2023/02/20 20:36:30;;;;;;;11.38;4.68;;;6.90;49.20;;;;;;6237885;23;20024;-86
2023/02/20 20:39:20;;;;;;;10.50;4.25;;;6.70;52.50;;;;;;6235236;23;20027;-87
2023/02/20 20:42:07;;;;;;;10.27;4.20;;;6.50;58.60;;;;;;6253624;23;20054;-86
2023/02/20 20:45:06;;;;;;;11.70;4.55;;;6.30;70.60;;;;;;6230610;23;20154;-85
2023/02/20 20:47:54;;;;;;;9.30;4.90;;;6.40;81.20;;;;;;6250758;23;20103;-86
2023/02/20 20:50:43;;;;;;;8.45;4.47;;;6.30;88.30;;;;;;6248179;23;20113;-86
2023/02/20 20:53:31;;;;;;;8.32;4.60;;;6.50;95.20;;;;;;6225395;23;20024;-85
2023/02/20 20:56:20;;;;;;;10.50;4.32;;;6.70;96.40;;;;;;6226720;23;20056;-85
2023/02/20 20:59:11;;;;;;;9.00;3.85;;;6.70;94.10;;;;;;6251000;23;20716;-85
2023/02/20 21:02:04;;;;;;;8.90;4.53;;;6.70;94.60;;;;;;6249351;23;20028;-85
2023/02/20 21:04:54;;;;;;;12.07;5.75;;;6.70;96.30;;;;;;6230310;23;20030;-85
2023/02/20 21:08:00;;;;;;;12.00;5.68;;;6.60;99.00;;;;;;6249673;23;20435;-85
2023/02/20 21:10:53;;;;;;;13.10;6.03;;;6.40;99.90;;;;;;6251738;23;20024;-86
2023/02/20 21:13:51;;;;;;;11.30;5.72;;;6.30;99.90;;;;;;6228259;23;20024;-86
2023/02/20 21:16:39;;;;;;;8.50;4.85;;;6.30;99.90;;;;;;6227680;23;20534;-87
2023/02/20 21:19:27;;;;;;;8.85;5.50;;;6.20;99.90;;;;;;6248121;23;20074;-85
2023/02/20 21:22:16;;;;;;;19.60;7.68;;;6.20;99.90;;;;;;6228615;23;20305;-86
2023/02/20 21:25:19;;;;;;;17.70;8.23;;;6.10;99.90;;;;;;6248192;23;20038;-85
2023/02/20 21:28:06;;;;;;;15.13;6.47;;;5.90;99.90;;;;;;6226848;23;20024;-84
2023/02/20 21:30:57;;;;;;;8.30;5.05;;;5.70;99.90;;;;;;6248303;23;20134;-86
2023/02/20 21:33:47;;;;;;;11.70;5.45;;;5.50;99.90;;;;;;6247785;23;20107;-84
2023/02/20 21:36:37;;;;;;;15.60;4.75;;;5.40;99.90;;;;;;6249086;23;20035;-84
2023/02/20 21:39:25;;;;;;;11.25;4.72;;;5.30;99.90;;;;;;6247754;23;20020;-85
2023/02/20 21:45:18;;;;;;;12.27;5.43;;;5.70;99.90;;;;;;6247869;23;20039;-85
2023/02/20 21:48:06;;;;;;;11.27;4.65;;;5.90;99.90;;;;;;6226828;23;20028;-86
2023/02/20 21:50:53;;;;;;;7.75;4.10;;;6.00;99.90;;;;;;6224782;23;20028;-85
2023/02/20 21:53:41;;;;;;;5.80;3.47;;;6.10;99.90;;;;;;6247239;23;20031;-85
2023/02/20 21:56:28;;;;;;;8.98;3.80;;;6.20;99.90;;;;;;6247084;23;20020;-87
